createdAt,value
2023-04-25T00:02:13.536Z,97399.70
2023-04-25T00:04:41.312Z,97402.55
2023-04-25T00:07:08.309Z,97396.83
2023-04-25T00:09:35.171Z,97399.85
2023-04-25T00:12:02.587Z,97401.01
2023-04-25T00:14:30.631Z,97407.33
2023-04-25T00:16:57.421Z,97403.58
2023-04-25T00:19:24.206Z,97402.18
2023-04-25T00:21:51.161Z,97398.66
2023-04-25T00:24:18.053Z,97403.89
2023-04-25T00:26:44.930Z,97406.22
2023-04-25T00:29:12.014Z,97400.61
2023-04-25T00:31:38.993Z,97406.52
2023-04-25T00:34:07.584Z,97406.48
2023-04-25T00:36:36.037Z,97408.76
2023-04-25T00:39:03.731Z,97411.23
2023-04-25T00:41:31.514Z,97409.30
2023-04-25T00:44:00.513Z,97410.45
2023-04-25T00:46:27.654Z,97415.20
2023-04-25T00:48:54.399Z,97415.02
2023-04-25T00:51:22.292Z,97415.86
2023-04-25T00:53:51.735Z,97413.61
2023-04-25T00:56:19.150Z,97415.10
2023-04-25T00:58:46.683Z,97414.20
2023-04-25T01:01:14.369Z,97415.61
2023-04-25T01:03:42.047Z,97416.09
2023-04-25T01:06:10.889Z,97409.58
2023-04-25T01:08:39.643Z,97408.54
2023-04-25T01:11:07.068Z,97413.95
2023-04-25T01:13:34.568Z,97413.70
2023-04-25T01:16:02.480Z,97411.89
2023-04-25T01:18:29.888Z,97421.49
2023-04-25T01:20:59.391Z,97415.84
2023-04-25T01:23:26.841Z,97411.30
2023-04-25T01:25:54.343Z,97414.70
2023-04-25T01:28:21.367Z,97412.23
2023-04-25T01:30:48.495Z,97410.84
2023-04-25T01:33:17.265Z,97411.06
2023-04-25T01:35:44.312Z,97413.98
2023-04-25T01:38:11.261Z,97412.23
2023-04-25T01:40:40.160Z,97416.59
2023-04-25T01:43:09.448Z,97415.10
2023-04-25T01:45:37.583Z,97421.61
2023-04-25T01:48:04.679Z,97417.75
2023-04-25T01:50:31.646Z,97420.06
2023-04-25T01:52:58.675Z,97421.48
2023-04-25T01:55:25.843Z,97424.00
2023-04-25T01:58:00.776Z,97426.78
2023-04-25T02:00:45.665Z,97428.20
2023-04-25T02:03:12.638Z,97428.64
2023-04-25T02:05:41.523Z,97428.83
2023-04-25T02:08:10.689Z,97428.35
2023-04-25T02:10:38.107Z,97426.88
2023-04-25T02:13:14.765Z,97431.44
2023-04-25T02:15:50.721Z,97430.61
2023-04-25T02:18:20.295Z,97435.83
2023-04-25T02:20:47.386Z,97437.17
2023-04-25T02:23:16.391Z,97433.65
2023-04-25T02:25:43.226Z,97435.55
2023-04-25T02:28:10.173Z,97436.27
2023-04-25T02:30:37.673Z,97435.48
2023-04-25T02:33:05.737Z,97440.77
2023-04-25T02:35:32.634Z,97437.17
2023-04-25T02:37:59.624Z,97438.26
2023-04-25T02:40:26.457Z,97439.70
2023-04-25T02:42:54.730Z,97440.73
2023-04-25T02:45:21.986Z,97441.40
2023-04-25T02:47:48.798Z,97443.13
2023-04-25T02:50:15.594Z,97440.00
2023-04-25T02:52:42.685Z,97446.02
2023-04-25T02:55:14.629Z,97443.52
2023-04-25T02:57:41.735Z,97446.04
2023-04-25T03:00:12.786Z,97446.95
2023-04-25T03:02:40.416Z,97447.48
2023-04-25T03:05:08.416Z,97443.58
2023-04-25T03:07:36.027Z,97445.12
2023-04-25T03:10:03.538Z,97445.28
2023-04-25T03:12:30.708Z,97447.52
2023-04-25T03:14:57.560Z,97449.70
2023-04-25T03:17:24.404Z,97449.82
2023-04-25T03:19:51.232Z,97457.30
2023-04-25T03:22:18.281Z,97452.86
2023-04-25T03:24:45.601Z,97451.73
2023-04-25T03:27:12.458Z,97453.25
2023-04-25T03:29:39.311Z,97458.11
2023-04-25T03:32:06.651Z,97457.64
2023-04-25T03:34:33.510Z,97462.83
2023-04-25T03:37:01.157Z,97458.05
2023-04-25T03:39:29.038Z,97464.07
2023-04-25T03:41:56.720Z,97463.52
2023-04-25T03:44:25.327Z,97466.87
2023-04-25T03:46:52.333Z,97468.20
2023-04-25T03:49:19.578Z,97468.39
2023-04-25T03:52:03.053Z,97467.84
2023-04-25T03:54:34.875Z,97471.78
2023-04-25T03:57:08.666Z,97468.49
2023-04-25T03:59:38.002Z,97477.32
2023-04-25T04:02:05.695Z,97482.30
2023-04-25T04:04:34.685Z,97478.77
2023-04-25T04:07:01.992Z,97485.23
2023-04-25T04:09:32.225Z,97484.70
2023-04-25T04:12:02.529Z,97486.98
2023-04-25T04:14:31.521Z,97495.05
2023-04-25T04:16:58.351Z,97493.77
2023-04-25T04:19:25.632Z,97497.28
2023-04-25T04:22:01.746Z,97497.51
2023-04-25T04:24:28.606Z,97497.30
2023-04-25T04:27:01.604Z,97501.02
2023-04-25T04:29:34.392Z,97507.45
2023-04-25T04:32:09.810Z,97508.63
2023-04-25T04:34:37.028Z,97508.02
2023-04-25T04:37:04.625Z,97512.20
2023-04-25T04:39:31.899Z,97510.08
2023-04-25T04:42:09.675Z,97508.44
2023-04-25T04:44:50.006Z,97510.08
2023-04-25T04:47:27.029Z,97515.72
2023-04-25T04:50:05.374Z,97515.66
2023-04-25T04:52:44.308Z,97512.15
2023-04-25T04:55:28.579Z,97515.31
2023-04-25T04:58:11.088Z,97516.91
2023-04-25T05:00:48.014Z,97515.08
2023-04-25T05:03:35.050Z,97518.38
2023-04-25T05:06:09.973Z,97516.05
2023-04-25T05:08:47.283Z,97517.98
2023-04-25T05:11:26.878Z,97522.41
2023-04-25T05:14:08.899Z,97521.06
2023-04-25T05:16:45.175Z,97520.77
2023-04-25T05:19:21.239Z,97521.56
2023-04-25T05:22:03.786Z,97518.14
2023-04-25T05:24:40.512Z,97526.10
2023-04-25T05:27:19.027Z,97524.42
2023-04-25T05:30:00.613Z,97527.36
2023-04-25T05:32:33.284Z,97527.58
2023-04-25T05:35:01.302Z,97527.73
2023-04-25T05:37:34.168Z,97530.68
2023-04-25T05:40:10.713Z,97526.79
2023-04-25T05:42:51.525Z,97528.42
2023-04-25T05:45:21.700Z,97528.46
2023-04-25T05:47:56.736Z,97535.05
2023-04-25T05:50:38.622Z,97533.55
2023-04-25T05:53:25.452Z,97537.39
2023-04-25T05:55:59.589Z,97532.48
2023-04-25T05:58:27.866Z,97532.79
2023-04-25T06:00:55.637Z,97534.92
2023-04-25T06:03:24.065Z,97535.37
2023-04-25T06:05:51.605Z,97535.52
2023-04-25T06:08:20.140Z,97539.59
2023-04-25T06:10:46.921Z,97545.46
2023-04-25T06:13:14.545Z,97544.05
2023-04-25T06:15:41.526Z,97542.44
2023-04-25T06:18:08.586Z,97543.93
2023-04-25T06:20:35.447Z,97544.17
2023-04-25T06:23:02.235Z,97549.80
2023-04-25T06:25:43.498Z,97546.55
2023-04-25T06:28:10.419Z,97549.04
2023-04-25T06:30:37.457Z,97548.82
2023-04-25T06:33:09.697Z,97552.14
2023-04-25T06:35:37.082Z,97549.48
2023-04-25T06:38:04.549Z,97548.26
2023-04-25T06:40:31.685Z,97552.30
2023-04-25T06:42:59.254Z,97550.58
2023-04-25T06:45:41.801Z,97551.68
2023-04-25T06:48:09.361Z,97554.87
2023-04-25T06:50:36.239Z,97556.79
2023-04-25T06:53:03.150Z,97558.27
2023-04-25T06:55:30.240Z,97557.25
2023-04-25T06:58:08.381Z,97559.77
2023-04-25T07:00:52.307Z,97557.25
2023-04-25T07:03:21.694Z,97554.35
2023-04-25T07:05:48.808Z,97551.96
2023-04-25T07:08:15.749Z,97548.70
2023-04-25T07:10:42.971Z,97548.50
2023-04-25T07:13:09.886Z,97554.77
2023-04-25T07:15:36.895Z,97556.00
2023-04-25T07:18:04.030Z,97556.66
2023-04-25T07:20:32.161Z,97554.59
2023-04-25T07:22:59.226Z,97552.70
2023-04-25T07:25:26.279Z,97553.09
2023-04-25T07:27:54.227Z,97550.15
2023-04-25T07:30:22.228Z,97552.02
2023-04-25T07:32:49.137Z,97551.11
2023-04-25T07:35:16.225Z,97553.52
2023-04-25T07:37:43.251Z,97553.29
2023-04-25T07:40:14.259Z,97555.82
2023-04-25T07:42:45.586Z,97557.68
2023-04-25T07:45:13.874Z,97557.34
2023-04-25T07:47:40.810Z,97555.00
2023-04-25T07:50:08.985Z,97550.17
2023-04-25T07:52:37.231Z,97556.22
2023-04-25T07:55:13.004Z,97558.13
2023-04-25T07:57:53.297Z,97557.15
2023-04-25T08:00:20.938Z,97555.52
2023-04-25T08:02:48.769Z,97554.60
2023-04-25T08:05:19.493Z,97556.83
2023-04-25T08:07:51.807Z,97558.38
2023-04-25T08:10:18.984Z,97561.08
2023-04-25T08:12:48.304Z,97557.77
2023-04-25T08:15:15.120Z,97556.15
2023-04-25T08:17:43.370Z,97552.23
2023-04-25T08:20:11.951Z,97553.41
2023-04-25T08:22:38.798Z,97553.98
2023-04-25T08:25:25.560Z,97551.56
2023-04-25T08:27:52.493Z,97553.12
2023-04-25T08:30:21.971Z,97553.29
2023-04-25T08:32:48.946Z,97552.33
2023-04-25T08:35:24.862Z,97553.68
2023-04-25T08:37:52.496Z,97555.04
2023-04-25T08:40:27.274Z,97552.09
2023-04-25T08:42:59.102Z,97547.20
2023-04-25T08:45:29.111Z,97552.70
2023-04-25T08:47:58.252Z,97552.29
2023-04-25T08:50:27.403Z,97552.23
2023-04-25T08:52:56.509Z,97553.54
2023-04-25T08:55:24.462Z,97550.68
2023-04-25T08:57:55.943Z,97552.09
2023-04-25T09:00:24.006Z,97552.66
2023-04-25T09:02:51.361Z,97551.14
2023-04-25T09:05:21.605Z,97553.09
2023-04-25T09:07:52.182Z,97554.30
2023-04-25T09:10:19.138Z,97553.22
2023-04-25T09:12:46.235Z,97554.38
2023-04-25T09:15:20.590Z,97557.27
2023-04-25T09:18:03.918Z,97555.30
2023-04-25T09:20:59.633Z,97557.87
2023-04-25T09:23:28.244Z,97556.98
2023-04-25T09:25:55.231Z,97555.75
2023-04-25T09:28:28.582Z,97555.42
2023-04-25T09:30:58.971Z,97552.16
2023-04-25T09:33:38.323Z,97556.93
2023-04-25T09:36:09.967Z,97556.32
2023-04-25T09:38:46.369Z,97552.70
2023-04-25T09:41:28.944Z,97555.05
2023-04-25T09:44:00.305Z,97556.21
2023-04-25T09:46:37.859Z,97554.41
2023-04-25T09:49:09.295Z,97550.83
2023-04-25T09:51:56.678Z,97552.35
2023-04-25T09:54:25.783Z,97553.81
2023-04-25T09:57:12.807Z,97557.42
2023-04-25T09:59:44.206Z,97553.20
2023-04-25T10:02:12.096Z,97552.61
2023-04-25T10:04:42.592Z,97554.42
2023-04-25T10:07:19.057Z,97551.38
2023-04-25T10:09:50.784Z,97544.68
2023-04-25T10:12:18.381Z,97549.14
2023-04-25T10:14:46.655Z,97552.02
2023-04-25T10:17:13.803Z,97547.13
2023-04-25T10:19:40.906Z,97546.63
2023-04-25T10:22:11.867Z,97540.27
2023-04-25T10:24:40.603Z,97536.52
2023-04-25T10:27:08.258Z,97534.11
2023-04-25T10:29:36.568Z,97533.25
2023-04-25T10:32:03.653Z,97529.54
2023-04-25T10:34:49.649Z,97532.66
2023-04-25T10:37:16.597Z,97528.55
2023-04-25T10:39:43.938Z,97532.42
2023-04-25T10:42:10.739Z,97526.67
2023-04-25T10:44:40.979Z,97527.02
2023-04-25T10:47:10.719Z,97528.21
2023-04-25T10:49:42.435Z,97528.09
2023-04-25T10:52:20.104Z,97527.40
2023-04-25T10:54:53.787Z,97521.97
2023-04-25T10:57:45.224Z,97518.36
2023-04-25T11:00:16.296Z,97510.18
2023-04-25T11:02:46.820Z,97509.65
2023-04-25T11:05:23.036Z,97514.51
2023-04-25T11:08:03.774Z,97512.80
2023-04-25T11:10:32.723Z,97511.52
2023-04-25T11:13:00.564Z,97510.13
2023-04-25T11:15:28.127Z,97509.52
2023-04-25T11:17:56.238Z,97512.10
2023-04-25T11:20:27.142Z,97510.59
2023-04-25T11:22:54.120Z,97516.06
2023-04-25T11:25:21.320Z,97518.80
2023-04-25T11:27:52.795Z,97519.35
2023-04-25T11:30:21.599Z,97514.02
2023-04-25T11:32:48.804Z,97517.17
2023-04-25T11:35:16.416Z,97519.78
2023-04-25T11:37:44.958Z,97519.09
2023-04-25T11:40:12.853Z,97519.15
2023-04-25T11:42:45.882Z,97528.61
2023-04-25T11:45:13.662Z,97524.38
2023-04-25T11:47:40.937Z,97521.06
2023-04-25T11:50:09.279Z,97520.16
2023-04-25T11:52:46.996Z,97521.73
2023-04-25T11:55:14.902Z,97523.46
2023-04-25T11:57:43.867Z,97528.17
2023-04-25T12:00:15.854Z,97527.61
2023-04-25T12:02:47.330Z,97527.70
2023-04-25T12:05:31.088Z,97528.27
2023-04-25T12:07:58.663Z,97527.06
2023-04-25T12:10:26.875Z,97524.93
2023-04-25T12:12:53.859Z,97524.77
2023-04-25T12:15:27.901Z,97521.82
2023-04-25T12:17:56.345Z,97519.73
2023-04-25T12:20:26.887Z,97521.67
2023-04-25T12:22:54.265Z,97524.02
2023-04-25T12:25:37.831Z,97529.08
2023-04-25T12:28:21.182Z,97529.02
2023-04-25T12:31:06.020Z,97530.58
2023-04-25T12:33:36.407Z,97530.51
2023-04-25T12:36:09.728Z,97528.04
2023-04-25T12:38:39.560Z,97534.92
2023-04-25T12:41:06.995Z,97530.39
2023-04-25T12:43:34.352Z,97529.48
2023-04-25T12:46:01.369Z,97532.08
2023-04-25T12:48:28.327Z,97534.52
2023-04-25T12:50:55.151Z,97536.80
2023-04-25T12:53:25.522Z,97535.88
2023-04-25T12:55:52.364Z,97533.03
2023-04-25T12:58:21.077Z,97530.48
2023-04-25T13:00:48.935Z,97531.60
2023-04-25T13:03:16.183Z,97531.69
2023-04-25T13:05:43.406Z,97526.94
2023-04-25T13:08:10.308Z,97531.98
2023-04-25T13:10:39.327Z,97530.63
2023-04-25T13:13:06.220Z,97533.41
2023-04-25T13:15:33.374Z,97530.66
2023-04-25T13:18:00.248Z,97532.04
2023-04-25T13:20:27.343Z,97527.92
2023-04-25T13:22:54.136Z,97534.20
2023-04-25T13:25:20.985Z,97533.13
2023-04-25T13:27:47.854Z,97529.74
2023-04-25T13:30:14.957Z,97529.52
2023-04-25T13:32:42.267Z,97528.02
2023-04-25T13:35:12.022Z,97526.36
2023-04-25T13:37:39.696Z,97524.58
2023-04-25T13:40:10.837Z,97524.05
2023-04-25T13:42:39.490Z,97530.11
2023-04-25T13:45:07.654Z,97528.76
2023-04-25T13:47:35.206Z,97528.94
2023-04-25T13:50:04.805Z,97530.62
2023-04-25T13:52:31.854Z,97526.73
2023-04-25T13:54:59.314Z,97527.69
2023-04-25T13:57:26.502Z,97530.77
2023-04-25T13:59:54.030Z,97527.80
2023-04-25T14:02:20.947Z,97531.95
2023-04-25T14:04:47.762Z,97532.28
2023-04-25T14:07:17.532Z,97535.86
2023-04-25T14:09:45.100Z,97538.20
2023-04-25T14:12:12.213Z,97537.36
2023-04-25T14:14:39.071Z,97541.65
2023-04-25T14:17:06.255Z,97538.09
2023-04-25T14:19:33.011Z,97539.57
2023-04-25T14:22:01.016Z,97538.63
2023-04-25T14:24:27.875Z,97539.93
2023-04-25T14:26:54.652Z,97544.23
2023-04-25T14:29:21.452Z,97544.38
2023-04-25T14:31:49.114Z,97543.48
2023-04-25T14:34:16.039Z,97548.42
2023-04-25T14:36:43.111Z,97542.84
2023-04-25T14:39:11.094Z,97534.36
2023-04-25T14:41:38.638Z,97536.17
2023-04-25T14:44:05.546Z,97536.98
2023-04-25T14:46:32.591Z,97537.41
2023-04-25T14:48:59.438Z,97540.23
2023-04-25T14:51:27.554Z,97544.81
2023-04-25T14:53:54.628Z,97549.52
2023-04-25T14:56:21.605Z,97544.48
2023-04-25T14:58:48.626Z,97549.37
2023-04-25T15:01:15.580Z,97551.05
2023-04-25T15:03:43.105Z,97554.30
2023-04-25T15:06:10.161Z,97553.01
2023-04-25T15:08:37.244Z,97559.08
2023-04-25T15:11:04.494Z,97554.35
2023-04-25T15:13:32.015Z,97547.41
2023-04-25T15:15:58.867Z,97547.85
2023-04-25T15:18:25.902Z,97545.91
2023-04-25T15:20:53.743Z,97546.99
2023-04-25T15:23:22.602Z,97546.81
2023-04-25T15:25:52.293Z,97544.85
2023-04-25T15:28:20.063Z,97548.69
2023-04-25T15:30:46.903Z,97549.69
2023-04-25T15:33:14.576Z,97550.12
2023-04-25T15:35:41.597Z,97546.52
2023-04-25T15:38:24.231Z,97550.09
2023-04-25T15:40:51.126Z,97551.37
2023-04-25T15:43:17.946Z,97549.55
2023-04-25T15:45:45.765Z,97549.52
2023-04-25T15:48:12.844Z,97551.83
2023-04-25T15:50:39.972Z,97549.68
2023-04-25T15:53:07.541Z,97547.58
2023-04-25T15:55:35.373Z,97548.22
2023-04-25T15:58:02.910Z,97550.23
2023-04-25T16:00:30.018Z,97546.33
2023-04-25T16:02:57.228Z,97549.24
2023-04-25T16:05:24.153Z,97544.98
2023-04-25T16:07:53.842Z,97546.41
2023-04-25T16:10:21.744Z,97550.52
2023-04-25T16:12:50.313Z,97551.29
2023-04-25T16:15:18.303Z,97549.32
2023-04-25T16:17:45.878Z,97549.17
2023-04-25T16:20:13.572Z,97547.77
2023-04-25T16:22:42.111Z,97555.34
2023-04-25T16:25:10.383Z,97554.71
2023-04-25T16:27:39.787Z,97550.25
2023-04-25T16:30:09.459Z,97554.70
2023-04-25T16:32:38.152Z,97560.73
2023-04-25T16:35:05.737Z,97559.52
2023-04-25T16:37:32.977Z,97559.52
2023-04-25T16:39:59.860Z,97569.48
2023-04-25T16:42:26.854Z,97566.54
2023-04-25T16:44:53.684Z,97570.93
2023-04-25T16:47:20.891Z,97576.83
2023-04-25T16:49:47.863Z,97577.67
2023-04-25T16:52:16.304Z,97577.38
2023-04-25T16:54:43.300Z,97575.15
2023-04-25T16:57:11.477Z,97573.38
2023-04-25T16:59:39.070Z,97573.94
2023-04-25T17:02:10.769Z,97578.85
2023-04-25T17:04:37.985Z,97581.84
2023-04-25T17:07:04.953Z,97585.36
2023-04-25T17:09:32.952Z,97584.78
2023-04-25T17:12:00.195Z,97586.42
2023-04-25T17:14:27.241Z,97586.63
2023-04-25T17:16:54.295Z,97591.39
2023-04-25T17:19:21.819Z,97591.88
2023-04-25T17:21:48.806Z,97593.34
2023-04-25T17:24:16.061Z,97594.19
2023-04-25T17:26:42.994Z,97596.08
2023-04-25T17:29:09.737Z,97605.42
2023-04-25T17:31:36.792Z,97610.83
2023-04-25T17:34:05.078Z,97612.35
2023-04-25T17:36:31.978Z,97609.88
2023-04-25T17:38:58.742Z,97611.59
2023-04-25T17:41:25.913Z,97614.00
2023-04-25T17:43:52.983Z,97608.48
2023-04-25T17:46:19.819Z,97610.16
2023-04-25T17:48:46.719Z,97613.35
2023-04-25T17:51:13.542Z,97621.52
2023-04-25T17:53:40.568Z,97623.92
2023-04-25T17:56:19.366Z,97631.50
2023-04-25T17:58:53.767Z,97635.60
2023-04-25T18:01:20.921Z,97634.81
2023-04-25T18:03:50.313Z,97639.05
2023-04-25T18:06:18.573Z,97648.07
2023-04-25T18:09:02.573Z,97650.40
2023-04-25T18:11:29.942Z,97656.30
2023-04-25T18:13:56.680Z,97662.22
2023-04-25T18:16:23.770Z,97662.73
2023-04-25T18:18:53.632Z,97670.08
2023-04-25T18:21:21.124Z,97672.34
2023-04-25T18:23:48.113Z,97675.10
2023-04-25T18:26:16.125Z,97678.06
2023-04-25T18:28:43.018Z,97683.88
2023-04-25T18:31:09.796Z,97684.36
2023-04-25T18:33:36.728Z,97689.56
2023-04-25T18:36:03.678Z,97698.86
2023-04-25T18:41:13.017Z,97707.90
2023-04-25T18:43:46.981Z,97711.05
2023-04-25T18:46:13.773Z,97714.81
2023-04-25T18:48:40.638Z,97722.16
2023-04-25T18:51:07.410Z,97731.30
2023-04-25T18:53:34.269Z,97737.58
2023-04-25T18:56:01.361Z,97740.80
2023-04-25T18:58:28.326Z,97746.44
2023-04-25T19:00:55.443Z,97748.36
2023-04-25T19:03:22.678Z,97751.14
2023-04-25T19:05:49.746Z,97754.02
2023-04-25T19:08:16.490Z,97755.71
2023-04-25T19:10:44.054Z,97757.05
2023-04-25T19:13:11.176Z,97755.73
2023-04-25T19:15:38.026Z,97756.23
2023-04-25T19:18:05.182Z,97758.20
2023-04-25T19:20:33.572Z,97755.52
2023-04-25T19:23:15.894Z,97759.48
2023-04-25T19:25:43.231Z,97764.31
2023-04-25T19:28:12.935Z,97762.15
2023-04-25T19:30:39.766Z,97762.55
2023-04-25T19:33:06.611Z,97767.06
2023-04-25T19:35:33.417Z,97768.56
2023-04-25T19:38:00.205Z,97772.61
2023-04-25T19:40:27.054Z,97772.52
2023-04-25T19:42:53.860Z,97773.68
2023-04-25T19:45:21.657Z,97772.05
2023-04-25T19:47:49.230Z,97770.36
2023-04-25T19:50:16.395Z,97771.19
2023-04-25T19:52:58.781Z,97771.92
2023-04-25T19:55:25.524Z,97770.73
2023-04-25T19:57:52.293Z,97772.13
2023-04-25T20:00:20.110Z,97772.81
2023-04-25T20:02:48.006Z,97772.45
2023-04-25T20:05:17.133Z,97776.20
2023-04-25T20:07:44.026Z,97771.97
2023-04-25T20:10:14.264Z,97774.54
2023-04-25T20:12:41.477Z,97775.27
2023-04-25T20:15:11.728Z,97777.39
2023-04-25T20:17:40.340Z,97781.04
2023-04-25T20:20:08.433Z,97779.45
2023-04-25T20:22:38.726Z,97782.45
2023-04-25T20:25:08.372Z,97784.52
2023-04-25T20:27:38.064Z,97788.34
2023-04-25T20:30:08.417Z,97790.66
2023-04-25T20:32:36.675Z,97789.61
2023-04-25T20:35:05.123Z,97792.77
2023-04-25T20:37:32.017Z,97796.77
2023-04-25T20:40:00.119Z,97800.88
2023-04-25T20:42:27.262Z,97801.42
2023-04-25T20:44:54.797Z,97804.21
2023-04-25T20:47:22.370Z,97802.42
2023-04-25T20:49:49.970Z,97805.52
2023-04-25T20:52:17.298Z,97808.87
2023-04-25T20:54:46.171Z,97817.50
2023-04-25T20:57:13.053Z,97821.50
2023-04-25T20:59:39.843Z,97823.48
2023-04-25T21:02:06.824Z,97825.35
2023-04-25T21:04:33.710Z,97828.65
2023-04-25T21:07:00.913Z,97826.89
2023-04-25T21:09:27.787Z,97833.51
2023-04-25T21:11:54.630Z,97830.77
2023-04-25T21:14:22.754Z,97833.86
2023-04-25T21:16:49.497Z,97831.34
2023-04-25T21:19:16.714Z,97835.46
2023-04-25T21:21:43.601Z,97836.74
2023-04-25T21:24:11.572Z,97835.83
2023-04-25T21:26:38.354Z,97838.46
2023-04-25T21:29:05.249Z,97840.75
2023-04-25T21:31:32.162Z,97843.47
2023-04-25T21:33:58.958Z,97844.45
2023-04-25T21:36:25.952Z,97847.73
2023-04-25T21:38:52.926Z,97852.82
2023-04-25T21:41:20.225Z,97853.71
2023-04-25T21:43:47.012Z,97854.34
2023-04-25T21:48:43.428Z,97857.63
2023-04-25T21:51:10.287Z,97858.20
2023-04-25T21:53:37.105Z,97861.57
2023-04-25T21:56:04.292Z,97857.35
2023-04-25T21:58:31.135Z,97866.39
2023-04-25T22:00:59.502Z,97862.04
2023-04-25T22:03:26.530Z,97871.39
2023-04-25T22:05:53.442Z,97869.09
2023-04-25T22:08:20.824Z,97867.48
2023-04-25T22:10:47.869Z,97873.23
2023-04-25T22:13:15.365Z,97870.75
2023-04-25T22:15:42.250Z,97878.12
2023-04-25T22:18:09.058Z,97881.48
2023-04-25T22:20:36.962Z,97886.20
2023-04-25T22:23:04.284Z,97888.16
2023-04-25T22:25:31.910Z,97888.60
2023-04-25T22:27:59.020Z,97891.03
2023-04-25T22:30:25.819Z,97893.16
2023-04-25T22:32:53.009Z,97897.50
2023-04-25T22:35:19.798Z,97897.73
2023-04-25T22:37:46.541Z,97895.69
2023-04-25T22:40:13.443Z,97899.55
2023-04-25T22:42:42.337Z,97900.95
2023-04-25T22:45:10.452Z,97900.77
2023-04-25T22:47:38.725Z,97909.50
2023-04-25T22:50:08.417Z,97905.98
2023-04-25T22:52:35.256Z,97905.88
2023-04-25T22:55:03.480Z,97901.63
2023-04-25T22:57:30.766Z,97897.98
2023-04-25T22:59:57.765Z,97898.52
2023-04-25T23:02:26.247Z,97899.20
2023-04-25T23:04:53.379Z,97898.84
2023-04-25T23:07:20.777Z,97904.20
2023-04-25T23:09:47.512Z,97906.44
2023-04-25T23:12:18.134Z,97906.94
2023-04-25T23:14:49.280Z,97912.63
2023-04-25T23:17:16.209Z,97914.52
2023-04-25T23:19:43.067Z,97919.85
2023-04-25T23:22:10.137Z,97921.04
2023-04-25T23:24:39.103Z,97920.60
2023-04-25T23:27:05.911Z,97928.68
2023-04-25T23:29:34.209Z,97932.71
2023-04-25T23:32:02.115Z,97935.83
2023-04-25T23:34:31.657Z,97936.02
2023-04-25T23:37:01.303Z,97939.55
2023-04-25T23:39:28.494Z,97943.98
2023-04-25T23:41:55.945Z,97945.34
2023-04-25T23:44:22.812Z,97945.39
2023-04-25T23:46:50.330Z,97944.61
2023-04-25T23:49:17.112Z,97947.75
2023-04-25T23:51:43.881Z,97950.98
2023-04-25T23:54:11.275Z,97954.55
2023-04-25T23:56:38.135Z,97954.63
2023-04-25T23:59:05.003Z,97953.54
